createdAt,value
2022-11-05T00:01:46.982Z,95.30
2022-11-05T00:04:37.216Z,95.30
2022-11-05T00:07:57.328Z,95.30
2022-11-05T00:10:31.467Z,95.30
2022-11-05T00:13:17.793Z,95.30
2022-11-05T00:16:08.009Z,95.30
2022-11-05T00:18:38.385Z,95.30
2022-11-05T00:21:28.364Z,95.40
2022-11-05T00:24:08.438Z,95.50
2022-11-05T00:26:38.964Z,95.50
2022-11-05T00:29:08.824Z,95.60
2022-11-05T00:31:39.587Z,95.50
2022-11-05T00:34:10.008Z,95.60
2022-11-05T00:36:40.549Z,95.70
2022-11-05T00:39:10.289Z,95.70
2022-11-05T00:41:40.717Z,95.60
2022-11-05T00:44:29.707Z,95.60
2022-11-05T00:47:19.462Z,95.60
2022-11-05T00:49:50.021Z,95.60
2022-11-05T00:52:30.180Z,95.70
2022-11-05T00:55:00.697Z,95.60
2022-11-05T00:57:30.437Z,95.50
2022-11-05T01:00:03.749Z,95.40
2022-11-05T01:02:34.175Z,95.50
2022-11-05T01:05:04.752Z,95.40
2022-11-05T01:07:35.118Z,95.40
2022-11-05T01:10:05.590Z,95.40
2022-11-05T01:12:36.060Z,95.40
2022-11-05T01:15:06.936Z,95.40
2022-11-05T01:17:37.434Z,95.40
2022-11-05T01:20:08.232Z,95.30
2022-11-05T01:22:38.625Z,95.40
2022-11-05T01:25:09.743Z,95.20
2022-11-05T01:27:41.166Z,95.20
2022-11-05T01:30:12.695Z,95.10
2022-11-05T01:32:43.211Z,95.10
2022-11-05T01:35:19.455Z,94.90
2022-11-05T01:37:50.525Z,94.60
2022-11-05T01:40:24.495Z,94.40
2022-11-05T01:42:55.871Z,94.40
2022-11-05T01:45:29.826Z,94.40
2022-11-05T01:48:29.844Z,94.40
2022-11-05T01:51:20.542Z,94.40
2022-11-05T01:53:57.169Z,94.30
2022-11-05T01:56:33.645Z,94.40
2022-11-05T01:59:27.864Z,94.60
2022-11-05T02:01:58.558Z,94.40
2022-11-05T02:04:52.809Z,94.10
2022-11-05T02:07:25.450Z,93.70
2022-11-05T02:10:08.040Z,93.40
2022-11-05T02:12:40.753Z,93.30
2022-11-05T02:15:14.603Z,93.30
2022-11-05T02:18:16.913Z,93.10
2022-11-05T02:21:05.823Z,93.00
2022-11-05T02:24:05.795Z,93.00
2022-11-05T02:27:04.305Z,93.00
2022-11-05T02:30:12.931Z,93.20
2022-11-05T02:33:05.800Z,93.40
2022-11-05T02:36:06.862Z,93.00
2022-11-05T02:39:06.736Z,92.70
2022-11-05T02:42:01.931Z,92.90
2022-11-05T02:44:53.788Z,93.10
2022-11-05T02:47:47.469Z,92.80
2022-11-05T02:50:34.458Z,92.40
2022-11-05T02:53:13.060Z,92.70
2022-11-05T02:56:01.506Z,92.50
2022-11-05T02:58:32.347Z,92.40
2022-11-05T03:01:03.773Z,92.80
2022-11-05T03:03:53.036Z,92.40
2022-11-05T03:06:48.496Z,92.50
2022-11-05T03:09:48.526Z,92.50
2022-11-05T03:12:38.807Z,92.20
2022-11-05T03:15:27.175Z,92.20
2022-11-05T03:18:34.255Z,92.40
2022-11-05T03:21:11.339Z,92.30
2022-11-05T03:24:04.993Z,91.80
2022-11-05T03:26:54.381Z,91.90
2022-11-05T03:29:45.487Z,92.00
2022-11-05T03:32:18.183Z,91.80
2022-11-05T03:34:53.956Z,91.60
2022-11-05T03:37:26.394Z,90.50
2022-11-05T03:40:01.663Z,90.40
2022-11-05T03:42:34.964Z,90.80
2022-11-05T03:45:12.736Z,90.40
2022-11-05T03:47:45.254Z,90.60
2022-11-05T03:50:41.520Z,91.00
2022-11-05T03:53:24.640Z,90.60
2022-11-05T03:56:03.683Z,90.70
2022-11-05T03:58:34.333Z,90.30
2022-11-05T04:01:05.232Z,90.50
2022-11-05T04:03:37.994Z,90.30
2022-11-05T04:06:21.359Z,88.50
2022-11-05T04:09:01.440Z,87.90
2022-11-05T04:11:41.646Z,89.00
2022-11-05T04:14:11.375Z,87.80
2022-11-05T04:16:51.967Z,89.10
2022-11-05T04:19:41.228Z,87.70
2022-11-05T04:22:22.276Z,87.30
2022-11-05T04:24:52.546Z,87.30
2022-11-05T04:27:22.418Z,86.70
2022-11-05T04:30:02.735Z,87.80
2022-11-05T04:32:32.602Z,87.40
2022-11-05T04:35:03.313Z,86.60
2022-11-05T04:37:33.355Z,86.80
2022-11-05T04:40:03.194Z,87.10
2022-11-05T04:42:33.089Z,85.70
2022-11-05T04:45:02.991Z,86.20
2022-11-05T04:47:32.819Z,85.90
2022-11-05T04:50:03.693Z,85.50
2022-11-05T04:52:35.002Z,85.60
2022-11-05T04:55:05.103Z,84.60
2022-11-05T04:57:34.337Z,84.70
2022-11-05T05:00:05.282Z,84.80
2022-11-05T05:02:35.814Z,84.20
2022-11-05T05:05:06.669Z,84.00
2022-11-05T05:07:37.470Z,84.10
2022-11-05T05:10:08.991Z,83.80
2022-11-05T05:12:39.002Z,82.60
2022-11-05T05:15:09.576Z,83.80
2022-11-05T05:17:39.458Z,84.90
2022-11-05T05:20:25.755Z,83.80
2022-11-05T05:22:57.019Z,82.80
2022-11-05T05:25:27.093Z,83.40
2022-11-05T05:27:58.484Z,81.50
2022-11-05T05:30:28.687Z,80.90
2022-11-05T05:32:58.635Z,81.50
2022-11-05T05:35:28.901Z,82.90
2022-11-05T05:37:58.987Z,81.50
2022-11-05T05:40:28.724Z,80.70
2022-11-05T05:42:58.702Z,80.60
2022-11-05T05:45:28.742Z,81.80
2022-11-05T05:47:58.957Z,81.70
2022-11-05T05:50:28.859Z,82.20
2022-11-05T05:52:59.107Z,80.40
2022-11-05T05:55:29.224Z,81.20
2022-11-05T05:57:59.800Z,81.50
2022-11-05T06:00:29.771Z,79.90
2022-11-05T06:02:59.689Z,78.30
2022-11-05T06:05:28.933Z,77.80
2022-11-05T06:08:00.127Z,75.70
2022-11-05T06:10:30.050Z,77.20
2022-11-05T06:13:02.484Z,78.10
2022-11-05T06:15:35.823Z,77.10
2022-11-05T06:18:06.240Z,74.70
2022-11-05T06:20:35.459Z,75.00
2022-11-05T06:23:05.334Z,75.20
2022-11-05T06:25:38.523Z,73.70
2022-11-05T06:28:11.915Z,75.10
2022-11-05T06:30:41.825Z,73.20
2022-11-05T06:33:11.951Z,72.90
2022-11-05T06:35:42.058Z,75.10
2022-11-05T06:38:11.910Z,74.30
2022-11-05T06:40:41.747Z,74.20
2022-11-05T06:43:12.131Z,72.60
2022-11-05T06:45:42.707Z,73.10
2022-11-05T06:48:12.485Z,73.90
2022-11-05T06:50:45.513Z,72.80
2022-11-05T06:53:15.941Z,73.70
2022-11-05T06:55:46.826Z,74.90
2022-11-05T06:58:17.281Z,75.50
2022-11-05T07:00:47.871Z,74.90
2022-11-05T07:03:17.919Z,74.60
2022-11-05T07:05:50.124Z,73.90
2022-11-05T07:08:20.172Z,74.00
2022-11-05T07:10:50.471Z,72.80
2022-11-05T07:13:20.401Z,72.70
2022-11-05T07:15:49.676Z,73.10
2022-11-05T07:18:19.643Z,72.80
2022-11-05T07:20:48.947Z,73.50
2022-11-05T07:23:19.191Z,73.40
2022-11-05T07:25:49.240Z,72.30
2022-11-05T07:28:18.407Z,73.80
2022-11-05T07:30:49.820Z,73.00
2022-11-05T07:33:19.828Z,74.40
2022-11-05T07:35:49.082Z,74.30
2022-11-05T07:38:19.017Z,75.40
2022-11-05T07:40:48.890Z,76.10
2022-11-05T07:43:18.761Z,75.70
2022-11-05T07:45:49.396Z,75.20
2022-11-05T07:48:19.306Z,76.40
2022-11-05T07:50:48.540Z,75.90
2022-11-05T07:53:18.552Z,75.70
2022-11-05T07:55:48.196Z,75.00
2022-11-05T07:58:18.541Z,74.50
2022-11-05T08:00:49.707Z,75.50
2022-11-05T08:03:21.436Z,74.40
2022-11-05T08:05:52.148Z,73.20
2022-11-05T08:08:23.003Z,74.30
2022-11-05T08:10:53.475Z,74.00
2022-11-05T08:13:23.745Z,74.30
2022-11-05T08:15:54.605Z,73.10
2022-11-05T08:18:24.931Z,73.90
2022-11-05T08:20:56.126Z,73.80
2022-11-05T08:23:26.476Z,73.10
2022-11-05T08:25:57.648Z,72.80
2022-11-05T08:28:29.237Z,72.00
2022-11-05T08:31:02.247Z,73.50
2022-11-05T08:33:33.021Z,73.00
2022-11-05T08:36:07.231Z,71.50
2022-11-05T08:38:37.066Z,72.60
2022-11-05T08:41:07.700Z,72.70
2022-11-05T08:43:38.192Z,73.30
2022-11-05T08:46:08.039Z,73.60
2022-11-05T08:48:37.897Z,73.00
2022-11-05T08:51:07.866Z,73.00
2022-11-05T08:53:37.134Z,72.90
2022-11-05T08:56:07.156Z,73.80
2022-11-05T08:58:36.353Z,72.70
2022-11-05T09:01:07.389Z,72.50
2022-11-05T09:03:37.319Z,73.50
2022-11-05T09:06:07.475Z,73.30
2022-11-05T09:08:37.436Z,73.50
2022-11-05T09:11:06.912Z,73.30
2022-11-05T09:13:37.207Z,72.60
2022-11-05T09:16:07.880Z,74.20
2022-11-05T09:18:37.730Z,73.40
2022-11-05T09:21:07.656Z,72.70
2022-11-05T09:23:36.925Z,73.70
2022-11-05T09:26:06.834Z,73.90
2022-11-05T09:28:36.642Z,72.90
2022-11-05T09:31:12.125Z,72.10
2022-11-05T09:33:43.098Z,70.80
2022-11-05T09:36:13.071Z,72.20
2022-11-05T09:38:42.290Z,73.10
2022-11-05T09:41:30.550Z,73.10
2022-11-05T09:44:08.173Z,73.30
2022-11-05T09:46:58.842Z,74.10
2022-11-05T09:49:37.003Z,72.90
2022-11-05T09:52:07.470Z,72.30
2022-11-05T09:54:37.364Z,73.00
2022-11-05T09:57:14.024Z,72.60
2022-11-05T09:59:49.343Z,73.40
2022-11-05T10:02:37.001Z,73.50
2022-11-05T10:05:13.482Z,72.50
2022-11-05T10:07:58.774Z,72.40
2022-11-05T10:10:41.269Z,73.00
2022-11-05T10:13:25.948Z,72.60
2022-11-05T10:16:19.286Z,72.10
2022-11-05T10:18:55.878Z,73.50
2022-11-05T10:21:51.368Z,74.40
2022-11-05T10:24:19.567Z,74.60
2022-11-05T10:26:52.651Z,74.80
2022-11-05T10:29:36.137Z,75.80
2022-11-05T10:32:08.954Z,75.00
2022-11-05T10:34:42.150Z,75.40
2022-11-05T10:37:13.025Z,76.00
2022-11-05T10:39:42.986Z,76.50
2022-11-05T10:42:35.089Z,76.50
2022-11-05T10:45:26.254Z,78.10
2022-11-05T10:48:26.590Z,77.10
2022-11-05T10:50:57.159Z,77.80
2022-11-05T10:53:34.704Z,79.20
2022-11-05T10:56:05.589Z,80.00
2022-11-05T10:58:37.317Z,80.40
2022-11-05T11:01:12.895Z,80.20
2022-11-05T11:03:50.461Z,81.00
2022-11-05T11:06:39.740Z,81.30
2022-11-05T11:09:21.495Z,82.40
2022-11-05T11:12:07.483Z,82.30
2022-11-05T11:14:37.377Z,83.90
2022-11-05T11:17:28.510Z,83.30
2022-11-05T11:20:25.125Z,83.70
2022-11-05T11:23:17.280Z,84.10
2022-11-05T11:26:02.419Z,84.70
2022-11-05T11:28:50.395Z,84.00
2022-11-05T11:31:27.351Z,83.90
2022-11-05T11:34:10.237Z,84.40
2022-11-05T11:36:49.087Z,84.20
2022-11-05T11:39:26.202Z,83.30
2022-11-05T11:42:01.758Z,84.30
2022-11-05T11:44:38.523Z,85.70
2022-11-05T11:47:15.735Z,85.10
2022-11-05T11:49:54.046Z,85.00
2022-11-05T11:52:34.449Z,85.80
2022-11-05T11:55:24.479Z,85.50
2022-11-05T11:58:06.702Z,85.50
2022-11-05T12:00:44.585Z,86.00
2022-11-05T12:03:51.598Z,86.00
2022-11-05T12:06:51.056Z,85.90
2022-11-05T12:09:34.102Z,86.30
2022-11-05T12:12:16.642Z,86.10
2022-11-05T12:15:17.604Z,86.50
2022-11-05T12:18:05.120Z,87.30
2022-11-05T12:20:56.941Z,86.30
2022-11-05T12:23:57.577Z,87.10
2022-11-05T12:26:48.014Z,87.60
2022-11-05T12:29:45.857Z,87.30
2022-11-05T12:32:33.089Z,87.70
2022-11-05T12:35:37.038Z,87.50
2022-11-05T12:38:37.976Z,87.60
2022-11-05T12:41:41.257Z,87.00
2022-11-05T12:44:43.088Z,88.10
2022-11-05T12:47:34.292Z,87.30
2022-11-05T12:50:33.502Z,86.60
2022-11-05T12:53:33.662Z,86.20
2022-11-05T12:56:12.336Z,86.30
2022-11-05T12:58:48.198Z,86.10
2022-11-05T13:01:23.469Z,86.30
2022-11-05T13:04:04.519Z,86.20
2022-11-05T13:06:42.973Z,85.40
2022-11-05T13:09:37.008Z,85.80
2022-11-05T13:12:15.816Z,85.60
2022-11-05T13:14:59.767Z,85.70
2022-11-05T13:17:38.831Z,87.40
2022-11-05T13:20:23.151Z,86.70
2022-11-05T13:23:08.922Z,87.60
2022-11-05T13:25:48.373Z,87.70
2022-11-05T13:28:48.741Z,87.30
2022-11-05T13:31:22.634Z,88.20
2022-11-05T13:33:54.680Z,87.40
2022-11-05T13:36:55.534Z,87.40
2022-11-05T13:39:35.026Z,87.40
2022-11-05T13:42:36.514Z,87.50
2022-11-05T13:45:40.530Z,88.20
2022-11-05T13:48:47.245Z,89.30
2022-11-05T13:51:43.353Z,88.40
2022-11-05T13:54:43.505Z,88.80
2022-11-05T13:57:47.793Z,88.50
2022-11-05T14:00:25.822Z,88.10
2022-11-05T14:03:03.041Z,88.10
2022-11-05T14:05:44.045Z,88.60
2022-11-05T14:08:27.859Z,88.80
2022-11-05T14:11:10.571Z,89.70
2022-11-05T14:13:45.207Z,89.00
2022-11-05T14:16:23.935Z,89.40
2022-11-05T14:19:33.215Z,90.10
2022-11-05T14:22:23.801Z,90.20
2022-11-05T14:24:54.704Z,89.60
2022-11-05T14:27:46.223Z,89.20
2022-11-05T14:30:49.784Z,90.00
2022-11-05T14:33:34.965Z,89.90
2022-11-05T14:36:31.542Z,90.10
2022-11-05T14:39:23.489Z,90.00
2022-11-05T14:42:01.424Z,90.10
2022-11-05T14:44:34.171Z,90.00
2022-11-05T14:47:09.914Z,90.30
2022-11-05T14:49:56.525Z,90.20
2022-11-05T14:52:28.000Z,90.00
2022-11-05T14:55:00.777Z,89.00
2022-11-05T14:58:01.831Z,89.40
2022-11-05T15:00:46.377Z,90.00
2022-11-05T15:03:42.703Z,90.00
2022-11-05T15:06:34.322Z,90.10
2022-11-05T15:09:18.116Z,90.50
2022-11-05T15:12:04.637Z,90.60
2022-11-05T15:14:51.451Z,90.40
2022-11-05T15:17:31.792Z,90.40
2022-11-05T15:20:11.273Z,90.40
2022-11-05T15:22:46.353Z,90.50
2022-11-05T15:25:47.862Z,90.70
2022-11-05T15:28:46.019Z,90.60
2022-11-05T15:31:35.976Z,90.40
2022-11-05T15:34:26.340Z,90.40
2022-11-05T15:36:58.818Z,90.60
2022-11-05T15:39:42.689Z,90.70
2022-11-05T15:42:26.694Z,90.90
2022-11-05T15:45:00.221Z,90.90
2022-11-05T15:47:36.288Z,90.80
2022-11-05T15:50:16.525Z,90.90
2022-11-05T15:53:04.854Z,91.10
2022-11-05T15:55:55.670Z,91.30
2022-11-05T15:58:26.162Z,91.40
2022-11-05T16:00:56.967Z,91.60
2022-11-05T16:03:36.322Z,91.60
2022-11-05T16:06:11.314Z,91.60
2022-11-05T16:08:41.873Z,91.40
2022-11-05T16:11:22.912Z,91.50
2022-11-05T16:13:53.903Z,91.50
2022-11-05T16:16:37.057Z,91.40
2022-11-05T16:19:40.264Z,91.60
2022-11-05T16:22:11.402Z,91.60
2022-11-05T16:24:41.927Z,91.50
2022-11-05T16:27:20.035Z,91.60
2022-11-05T16:29:57.541Z,91.50
2022-11-05T16:32:33.039Z,91.30
2022-11-05T16:35:06.642Z,91.50
2022-11-05T16:37:51.629Z,91.80
2022-11-05T16:40:26.301Z,91.50
2022-11-05T16:42:57.788Z,91.40
2022-11-05T16:45:28.643Z,91.60
2022-11-05T16:47:59.109Z,91.40
2022-11-05T16:50:33.673Z,91.40
2022-11-05T16:53:04.284Z,91.40
2022-11-05T16:55:36.259Z,91.40
2022-11-05T16:58:06.849Z,91.50
2022-11-05T17:00:37.314Z,91.60
2022-11-05T17:03:07.907Z,91.60
2022-11-05T17:05:39.471Z,91.70
2022-11-05T17:08:11.432Z,91.90
2022-11-05T17:10:43.379Z,91.80
2022-11-05T17:13:19.115Z,91.70
2022-11-05T17:15:52.452Z,91.90
2022-11-05T17:18:23.663Z,91.90
2022-11-05T17:20:56.721Z,92.10
2022-11-05T17:23:29.567Z,92.20
2022-11-05T17:26:05.791Z,92.00
2022-11-05T17:28:37.455Z,91.90
2022-11-05T17:31:10.733Z,91.90
2022-11-05T17:33:41.765Z,91.90
2022-11-05T17:36:16.298Z,92.00
2022-11-05T17:38:47.066Z,92.00
2022-11-05T17:41:24.245Z,92.10
2022-11-05T17:44:00.820Z,92.30
2022-11-05T17:46:31.670Z,92.20
2022-11-05T17:49:02.305Z,92.30
2022-11-05T17:51:32.775Z,92.30
2022-11-05T17:54:03.318Z,92.30
2022-11-05T17:56:36.256Z,92.40
2022-11-05T17:59:08.623Z,92.50
2022-11-05T18:01:45.120Z,92.80
2022-11-05T18:04:15.903Z,92.60
2022-11-05T18:06:46.470Z,92.70
2022-11-05T18:09:17.572Z,92.90
2022-11-05T18:11:48.476Z,92.80
2022-11-05T18:14:23.679Z,93.00
2022-11-05T18:16:57.396Z,93.00
2022-11-05T18:19:28.299Z,92.90
2022-11-05T18:21:58.968Z,92.90
2022-11-05T18:24:29.331Z,92.80
2022-11-05T18:26:59.905Z,92.80
2022-11-05T18:29:30.990Z,92.80
2022-11-05T18:32:01.428Z,93.10
2022-11-05T18:34:31.272Z,93.10
2022-11-05T18:37:01.828Z,93.00
2022-11-05T18:39:32.374Z,93.10
2022-11-05T18:42:02.231Z,92.80
2022-11-05T18:44:37.807Z,92.90
2022-11-05T18:47:09.602Z,92.90
2022-11-05T18:49:39.520Z,93.00
2022-11-05T18:52:10.007Z,93.00
2022-11-05T18:54:39.865Z,93.10
2022-11-05T18:57:10.615Z,93.30
2022-11-05T18:59:44.122Z,93.20
2022-11-05T19:02:15.158Z,93.30
2022-11-05T19:05:07.028Z,93.10
2022-11-05T19:07:41.780Z,93.10
2022-11-05T19:10:12.941Z,93.10
2022-11-05T19:12:43.570Z,93.20
2022-11-05T19:15:14.510Z,93.20
2022-11-05T19:17:45.077Z,93.20
2022-11-05T19:20:16.181Z,93.10
2022-11-05T19:22:46.596Z,93.20
2022-11-05T19:25:17.080Z,93.30
2022-11-05T19:27:46.983Z,93.30
2022-11-05T19:30:17.670Z,93.30
2022-11-05T19:32:48.216Z,93.40
2022-11-05T19:35:18.181Z,93.50
2022-11-05T19:37:48.572Z,93.60
2022-11-05T19:40:19.249Z,93.60
2022-11-05T19:42:50.488Z,93.60
2022-11-05T19:45:43.585Z,93.50
2022-11-05T19:48:16.176Z,93.60
2022-11-05T19:50:49.720Z,93.70
2022-11-05T19:53:20.685Z,93.80
2022-11-05T19:55:51.240Z,93.70
2022-11-05T19:58:21.032Z,93.80
2022-11-05T20:00:51.457Z,93.70
2022-11-05T20:03:21.390Z,93.80
2022-11-05T20:05:52.233Z,93.90
2022-11-05T20:08:22.822Z,94.00
2022-11-05T20:10:56.143Z,94.00
2022-11-05T20:13:27.333Z,94.10
2022-11-05T20:15:57.827Z,94.20
2022-11-05T20:18:28.162Z,94.20
2022-11-05T20:21:11.812Z,94.20
2022-11-05T20:23:42.560Z,94.30
2022-11-05T20:26:13.469Z,94.20
2022-11-05T20:28:45.833Z,94.20
2022-11-05T20:31:19.548Z,94.20
2022-11-05T20:33:50.236Z,94.00
2022-11-05T20:36:24.181Z,93.90
2022-11-05T20:39:00.227Z,93.80
2022-11-05T20:41:31.070Z,93.70
2022-11-05T20:44:01.735Z,93.90
2022-11-05T20:46:32.229Z,94.00
2022-11-05T20:49:02.169Z,94.00
2022-11-05T20:51:32.699Z,94.00
2022-11-05T20:54:03.179Z,94.10
2022-11-05T20:56:36.891Z,94.10
2022-11-05T20:59:07.844Z,94.20
2022-11-05T21:01:38.636Z,94.20
2022-11-05T21:04:09.306Z,94.20
2022-11-05T21:06:39.235Z,94.20
2022-11-05T21:09:09.894Z,94.30
2022-11-05T21:11:53.341Z,94.40
2022-11-05T21:14:24.127Z,94.40
2022-11-05T21:16:55.150Z,94.40
2022-11-05T21:19:26.148Z,94.30
2022-11-05T21:21:56.575Z,94.40
2022-11-05T21:24:27.273Z,94.40
2022-11-05T21:26:57.930Z,94.40
2022-11-05T21:29:28.732Z,94.10
2022-11-05T21:31:59.165Z,94.00
2022-11-05T21:34:30.038Z,94.00
2022-11-05T21:37:00.506Z,94.10
2022-11-05T21:39:31.189Z,94.20
2022-11-05T21:42:01.571Z,94.20
2022-11-05T21:44:32.239Z,94.20
2022-11-05T21:47:02.703Z,94.20
2022-11-05T21:49:33.353Z,94.20
2022-11-05T21:52:15.834Z,94.10
2022-11-05T21:54:56.014Z,94.40
2022-11-05T21:57:36.098Z,94.30
2022-11-05T22:00:10.534Z,94.20
2022-11-05T22:02:41.591Z,94.20
2022-11-05T22:05:12.366Z,94.10
2022-11-05T22:07:42.933Z,94.00
2022-11-05T22:10:16.352Z,94.20
2022-11-05T22:12:48.017Z,94.30
2022-11-05T22:15:18.616Z,94.20
2022-11-05T22:17:49.231Z,94.10
2022-11-05T22:20:20.609Z,94.10
2022-11-05T22:22:51.366Z,94.20
2022-11-05T22:25:22.149Z,94.10
2022-11-05T22:27:52.571Z,94.20
2022-11-05T22:30:23.255Z,94.30
2022-11-05T22:32:53.647Z,94.20
2022-11-05T22:35:24.106Z,94.10
2022-11-05T22:37:54.696Z,94.20
2022-11-05T22:40:25.172Z,94.20
2022-11-05T22:42:55.708Z,94.30
2022-11-05T22:45:25.467Z,94.30
2022-11-05T22:47:55.922Z,94.40
2022-11-05T22:50:26.559Z,94.30
2022-11-05T22:52:57.090Z,94.30
2022-11-05T22:55:26.948Z,94.30
2022-11-05T22:57:57.435Z,94.30
2022-11-05T23:00:36.607Z,94.30
2022-11-05T23:03:07.389Z,94.40
2022-11-05T23:05:37.939Z,94.20
2022-11-05T23:08:20.397Z,94.30
2022-11-05T23:11:00.571Z,94.30
2022-11-05T23:13:31.167Z,94.30
2022-11-05T23:16:10.905Z,94.30
2022-11-05T23:18:50.989Z,94.40
2022-11-05T23:21:31.194Z,94.50
2022-11-05T23:24:08.679Z,94.40
2022-11-05T23:26:51.686Z,94.40
2022-11-05T23:29:25.167Z,94.50
2022-11-05T23:32:11.792Z,94.60
2022-11-05T23:34:42.353Z,94.60
2022-11-05T23:37:21.948Z,94.60
2022-11-05T23:39:53.267Z,94.60
2022-11-05T23:42:42.197Z,94.60
2022-11-05T23:45:32.155Z,94.70
2022-11-05T23:48:19.271Z,94.70
2022-11-05T23:50:55.777Z,94.80
2022-11-05T23:53:26.835Z,94.90
2022-11-05T23:56:03.766Z,94.90
2022-11-05T23:58:34.386Z,94.70
